Time,TemperatureF,DewpointF,PressureIn,WindDirection,WindDirectionDegrees,WindSpeedMPH,WindSpeedGustMPH,Humidity,HourlyPrecipIn,Conditions,Clouds,dailyrainin,SoftwareType,DateUTC
2013-01-25 00:01:00,29.9,22.0,30.29,NW,309,0.0,0.0,72,0.00,,,0.00,Wunderground v.1.15,2013-01-25 07:01:00,
2013-01-25 00:10:00,29.7,21.8,30.29,NW,309,0.0,0.0,72,0.00,,,0.00,Wunderground v.1.15,2013-01-25 07:10:00,
2013-01-25 00:20:00,28.9,21.3,30.28,NW,309,0.0,0.0,73,0.00,,,0.00,Wunderground v.1.15,2013-01-25 07:20:00,
2013-01-25 00:30:00,28.3,21.4,30.28,NW,309,0.0,0.0,75,0.00,,,0.00,Wunderground v.1.15,2013-01-25 07:30:00,
2013-01-25 00:40:00,28.0,21.4,30.27,NW,309,0.0,0.0,76,0.00,,,0.00,Wunderground v.1.15,2013-01-25 07:40:00,
2013-01-25 00:45:00,27.9,21.3,30.27,NW,309,0.0,0.0,76,0.00,,,0.00,Wunderground v.1.15,2013-01-25 07:45:00,
2013-01-25 00:50:00,27.8,21.2,30.27,NW,309,0.0,0.0,76,0.00,,,0.00,Wunderground v.1.15,2013-01-25 07:50:00,
2013-01-25 01:00:00,27.5,21.2,30.28,NW,309,0.0,0.0,77,0.00,,,0.00,Wunderground v.1.15,2013-01-25 08:00:00,
2013-01-25 01:10:00,27.4,21.4,30.29,NW,309,0.0,0.0,78,0.00,,,0.00,Wunderground v.1.15,2013-01-25 08:10:00,
2013-01-25 01:15:00,27.5,21.8,30.28,NW,309,0.0,0.0,79,0.00,,,0.00,Wunderground v.1.15,2013-01-25 08:15:00,
2013-01-25 01:20:00,27.8,22.1,30.30,NW,309,0.0,0.0,79,0.00,,,0.00,Wunderground v.1.15,2013-01-25 08:20:00,
2013-01-25 01:25:00,27.8,22.1,30.30,NW,309,0.0,0.0,79,0.00,,,0.00,Wunderground v.1.15,2013-01-25 08:25:00,
2013-01-25 01:35:00,30.2,24.8,30.31,NNW,336,1.0,1.0,80,0.00,,,0.00,Wunderground v.1.15,2013-01-25 08:35:00,
2013-01-25 01:40:00,31.9,25.5,30.31,NW,325,2.0,2.0,77,0.00,,,0.00,Wunderground v.1.15,2013-01-25 08:40:00,
2013-01-25 01:45:00,33.2,26.1,30.32,NW,318,2.0,2.0,75,0.00,,,0.00,Wunderground v.1.15,2013-01-25 08:45:00,
2013-01-25 01:50:00,34.4,27.0,30.31,NW,322,2.0,4.0,74,0.00,,,0.00,Wunderground v.1.15,2013-01-25 08:50:00,
2013-01-25 01:55:00,35.4,27.3,30.31,NNW,329,3.0,5.0,72,0.00,,,0.00,Wunderground v.1.15,2013-01-25 08:55:00,
2013-01-25 02:01:00,36.1,27.6,30.31,NNW,336,3.0,5.0,71,0.00,,,0.00,Wunderground v.1.15,2013-01-25 09:01:00,
2013-01-25 02:10:00,36.3,27.8,30.31,NNW,340,3.0,3.0,71,0.00,,,0.00,Wunderground v.1.15,2013-01-25 09:10:00,
2013-01-25 02:15:00,36.6,28.1,30.30,NNW,331,2.0,4.0,71,0.00,,,0.00,Wunderground v.1.15,2013-01-25 09:15:00,
2013-01-25 02:20:00,36.8,28.3,30.30,NNW,336,2.0,7.0,71,0.00,,,0.00,Wunderground v.1.15,2013-01-25 09:20:00,
2013-01-25 02:25:00,36.9,28.7,30.30,NNW,342,2.0,7.0,72,0.00,,,0.00,Wunderground v.1.15,2013-01-25 09:25:00,
2013-01-25 02:30:00,37.0,28.8,30.29,WNW,296,3.0,4.0,72,0.00,,,0.00,Wunderground v.1.15,2013-01-25 09:30:00,
2013-01-25 02:40:00,37.1,28.9,30.28,NW,321,3.0,3.0,72,0.00,,,0.00,Wunderground v.1.15,2013-01-25 09:40:00,
2013-01-25 02:50:00,37.1,29.2,30.27,North,360,4.0,4.0,73,0.00,,,0.00,Wunderground v.1.15,2013-01-25 09:50:00,
2013-01-25 02:55:00,37.1,29.2,30.26,NNW,329,3.0,6.0,73,0.00,,,0.00,Wunderground v.1.15,2013-01-25 09:55:00,
2013-01-25 03:01:00,37.1,29.2,30.26,WNW,294,2.0,2.0,73,0.00,,,0.00,Wunderground v.1.15,2013-01-25 10:01:00,
2013-01-25 03:10:00,37.0,29.5,30.25,NW,307,2.0,5.0,74,0.00,,,0.00,Wunderground v.1.15,2013-01-25 10:10:00,
2013-01-25 03:20:00,37.0,29.5,30.25,NNW,330,3.0,4.0,74,0.00,,,0.00,Wunderground v.1.15,2013-01-25 10:20:00,
2013-01-25 03:25:00,37.1,29.6,30.25,NNW,336,5.0,7.0,74,0.00,,,0.00,Wunderground v.1.15,2013-01-25 10:25:00,
2013-01-25 03:30:00,37.1,29.6,30.25,NW,321,5.0,8.0,74,0.00,,,0.00,Wunderground v.1.15,2013-01-25 10:30:00,
2013-01-25 03:35:00,37.1,29.6,30.24,NW,306,4.0,8.0,74,0.00,,,0.00,Wunderground v.1.15,2013-01-25 10:35:00,
2013-01-25 03:40:00,37.0,29.5,30.25,NNW,335,3.0,8.0,74,0.00,,,0.00,Wunderground v.1.15,2013-01-25 10:40:00,
2013-01-25 03:45:00,37.0,29.5,30.25,NW,321,4.0,8.0,74,0.00,,,0.00,Wunderground v.1.15,2013-01-25 10:45:00,
2013-01-25 03:55:00,36.8,29.6,30.25,NNW,336,3.0,4.0,75,0.00,,,0.00,Wunderground v.1.15,2013-01-25 10:55:00,
2013-01-25 04:01:00,36.7,29.5,30.24,NNW,334,2.0,3.0,75,0.00,,,0.00,Wunderground v.1.15,2013-01-25 11:01:00,
2013-01-25 04:10:00,36.1,29.6,30.24,NW,304,1.0,1.0,77,0.00,,,0.00,Wunderground v.1.15,2013-01-25 11:10:00,
2013-01-25 04:20:00,35.5,29.3,30.24,NW,311,0.0,0.0,78,0.00,,,0.00,Wunderground v.1.15,2013-01-25 11:20:00,
2013-01-25 04:30:00,35.0,29.1,30.24,NW,311,0.0,0.0,79,0.00,,,0.00,Wunderground v.1.15,2013-01-25 11:30:00,
2013-01-25 04:35:00,35.4,29.8,30.23,NW,326,0.0,0.0,80,0.00,,,0.00,Wunderground v.1.15,2013-01-25 11:35:00,
2013-01-25 04:40:00,35.5,29.9,30.23,NW,321,0.0,0.0,80,0.00,,,0.00,Wunderground v.1.15,2013-01-25 11:40:00,
2013-01-25 04:45:00,35.8,29.9,30.23,NW,318,1.0,1.0,79,0.00,,,0.00,Wunderground v.1.15,2013-01-25 11:45:00,
2013-01-25 04:55:00,35.7,29.8,30.23,NNW,327,0.0,0.0,79,0.00,,,0.00,Wunderground v.1.15,2013-01-25 11:55:00,
2013-01-25 05:01:00,35.9,30.0,30.23,NNW,336,0.0,2.0,79,0.00,,,0.00,Wunderground v.1.15,2013-01-25 12:01:00,
2013-01-25 05:10:00,35.6,29.4,30.23,NNW,336,0.0,0.0,78,0.00,,,0.00,Wunderground v.1.15,2013-01-25 12:10:00,
2013-01-25 05:20:00,35.0,29.1,30.23,NNW,336,0.0,0.0,79,0.00,,,0.00,Wunderground v.1.15,2013-01-25 12:20:00,
2013-01-25 05:31:00,34.4,29.2,30.22,NNW,336,0.0,0.0,81,0.00,,,0.00,Wunderground v.1.15,2013-01-25 12:31:00,
2013-01-25 05:40:00,34.3,29.1,30.23,NNW,336,0.0,0.0,81,0.00,,,0.00,Wunderground v.1.15,2013-01-25 12:40:00,
2013-01-25 05:45:00,34.3,29.1,30.23,NNW,336,0.0,0.0,81,0.00,,,0.00,Wunderground v.1.15,2013-01-25 12:45:00,
2013-01-25 05:55:00,34.0,29.1,30.22,WNW,292,0.0,0.0,82,0.00,,,0.00,Wunderground v.1.15,2013-01-25 12:55:00,
2013-01-25 06:01:00,33.8,29.2,30.23,WNW,292,0.0,0.0,83,0.00,,,0.00,Wunderground v.1.15,2013-01-25 13:01:00,
2013-01-25 06:10:00,34.1,29.2,30.23,WNW,292,0.0,0.0,82,0.00,,,0.00,Wunderground v.1.15,2013-01-25 13:10:00,
2013-01-25 06:16:00,33.9,29.3,30.23,WNW,292,0.0,0.0,83,0.00,,,0.00,Wunderground v.1.15,2013-01-25 13:16:00,
2013-01-25 06:25:00,33.6,29.3,30.23,WNW,292,0.0,0.0,84,0.00,,,0.00,Wunderground v.1.15,2013-01-25 13:25:00,
2013-01-25 06:35:00,33.5,29.2,30.24,WNW,292,0.0,0.0,84,0.00,,,0.00,Wunderground v.1.15,2013-01-25 13:35:00,
2013-01-25 06:40:00,33.2,28.9,30.23,WNW,292,0.0,0.0,84,0.00,,,0.00,Wunderground v.1.15,2013-01-25 13:40:00,
2013-01-25 06:45:00,33.1,29.1,30.24,WNW,292,0.0,0.0,85,0.00,,,0.00,Wunderground v.1.15,2013-01-25 13:45:00,
2013-01-25 06:50:00,33.0,29.0,30.24,WNW,292,0.0,0.0,85,0.00,,,0.00,Wunderground v.1.15,2013-01-25 13:50:00,
2013-01-25 06:55:00,33.0,29.0,30.24,WNW,292,0.0,0.0,85,0.00,,,0.00,Wunderground v.1.15,2013-01-25 13:55:00,
2013-01-25 07:00:00,32.9,28.6,30.24,WNW,292,0.0,0.0,84,0.00,,,0.00,Wunderground v.1.15,2013-01-25 14:00:00,
2013-01-25 07:10:00,32.8,28.8,30.23,WNW,292,0.0,0.0,85,0.00,,,0.00,Wunderground v.1.15,2013-01-25 14:10:00,
2013-01-25 07:20:00,32.5,28.5,30.23,WNW,292,0.0,0.0,85,0.00,,,0.00,Wunderground v.1.15,2013-01-25 14:20:00,
2013-01-25 07:30:00,32.5,28.5,30.23,WNW,292,0.0,0.0,85,0.00,,,0.00,Wunderground v.1.15,2013-01-25 14:30:00,
2013-01-25 07:35:00,32.4,28.4,30.23,WNW,292,0.0,0.0,85,0.00,,,0.00,Wunderground v.1.15,2013-01-25 14:35:00,
2013-01-25 07:40:00,32.4,28.7,30.24,WNW,292,0.0,0.0,86,0.00,,,0.00,Wunderground v.1.15,2013-01-25 14:40:00,
2013-01-25 07:45:00,32.6,28.6,30.23,WNW,292,0.0,0.0,85,0.00,,,0.00,Wunderground v.1.15,2013-01-25 14:45:00,
2013-01-25 07:50:00,32.8,28.8,30.23,WNW,292,0.0,0.0,85,0.00,,,0.00,Wunderground v.1.15,2013-01-25 14:50:00,
2013-01-25 07:55:00,32.9,28.9,30.23,WNW,292,0.0,0.0,85,0.00,,,0.00,Wunderground v.1.15,2013-01-25 14:55:00,
2013-01-25 08:01:00,33.5,29.5,30.24,WNW,292,0.0,0.0,85,0.00,,,0.00,Wunderground v.1.15,2013-01-25 15:01:00,
2013-01-25 08:10:00,34.6,30.0,30.24,East,90,0.0,0.0,83,0.00,,,0.00,Wunderground v.1.15,2013-01-25 15:10:00,
2013-01-25 08:20:00,35.6,30.3,30.23,West,277,0.0,0.0,81,0.00,,,0.00,Wunderground v.1.15,2013-01-25 15:20:00,
2013-01-25 08:30:00,35.7,30.1,30.23,NW,325,0.0,0.0,80,0.00,,,0.00,Wunderground v.1.15,2013-01-25 15:30:00,
2013-01-25 08:40:00,35.6,30.3,30.23,WNW,302,0.0,0.0,81,0.00,,,0.00,Wunderground v.1.15,2013-01-25 15:40:00,
2013-01-25 08:45:00,36.1,30.5,30.23,NW,319,0.0,0.0,80,0.00,,,0.00,Wunderground v.1.15,2013-01-25 15:45:00,
2013-01-25 08:50:00,36.5,30.9,30.23,NW,318,0.0,0.0,80,0.00,,,0.00,Wunderground v.1.15,2013-01-25 15:50:00,
2013-01-25 08:55:00,37.0,30.8,30.23,NNW,344,0.0,0.0,78,0.00,,,0.00,Wunderground v.1.15,2013-01-25 15:55:00,
2013-01-25 09:01:00,36.7,30.8,30.23,NNW,340,0.0,0.0,79,0.00,,,0.00,Wunderground v.1.15,2013-01-25 16:01:00,
2013-01-25 09:10:00,36.7,30.8,30.23,ENE,59,0.0,0.0,79,0.00,,,0.00,Wunderground v.1.15,2013-01-25 16:10:00,
2013-01-25 09:15:00,37.1,30.9,30.22,SSE,162,0.0,0.0,78,0.00,,,0.00,Wunderground v.1.15,2013-01-25 16:15:00,
2013-01-25 09:20:00,37.4,31.2,30.23,NNW,331,0.0,0.0,78,0.00,,,0.00,Wunderground v.1.15,2013-01-25 16:20:00,
2013-01-25 09:25:00,37.2,31.3,30.23,NNW,335,0.0,1.0,79,0.00,,,0.00,Wunderground v.1.15,2013-01-25 16:25:00,
2013-01-25 09:30:00,37.9,31.3,30.23,WNW,303,1.0,1.0,77,0.00,,,0.00,Wunderground v.1.15,2013-01-25 16:30:00,
2013-01-25 09:40:00,38.5,31.3,30.23,NNW,327,1.0,1.0,75,0.00,,,0.00,Wunderground v.1.15,2013-01-25 16:40:00,
2013-01-25 09:45:00,38.7,31.5,30.23,NW,321,1.0,1.0,75,0.00,,,0.00,Wunderground v.1.15,2013-01-25 16:45:00,
2013-01-25 09:50:00,39.0,31.7,30.22,NW,319,1.0,1.0,75,0.00,,,0.00,Wunderground v.1.15,2013-01-25 16:50:00,
2013-01-25 09:55:00,39.8,31.8,30.22,NW,311,1.0,1.0,73,0.00,,,0.00,Wunderground v.1.15,2013-01-25 16:55:00,
2013-01-25 10:01:00,40.2,31.9,30.22,NNW,331,0.0,2.0,72,0.00,,,0.00,Wunderground v.1.15,2013-01-25 17:01:00,
2013-01-25 10:10:00,40.8,32.1,30.22,NNW,340,1.0,3.0,71,0.00,,,0.00,Wunderground v.1.15,2013-01-25 17:10:00,
2013-01-25 10:15:00,41.0,32.3,30.21,NW,306,2.0,3.0,71,0.00,,,0.00,Wunderground v.1.15,2013-01-25 17:15:00,
2013-01-25 10:20:00,41.4,32.3,30.22,NW,312,4.0,4.0,70,0.00,,,0.00,Wunderground v.1.15,2013-01-25 17:20:00,
2013-01-25 10:25:00,41.5,32.1,30.22,NNW,328,4.0,4.0,69,0.00,,,0.00,Wunderground v.1.15,2013-01-25 17:25:00,
2013-01-25 10:30:00,41.6,32.5,30.22,NW,322,4.0,4.0,70,0.00,,,0.00,Wunderground v.1.15,2013-01-25 17:30:00,
2013-01-25 10:40:00,41.8,32.7,30.22,NW,310,4.0,4.0,70,0.00,,,0.00,Wunderground v.1.15,2013-01-25 17:40:00,
2013-01-25 10:45:00,41.9,32.8,30.22,NW,304,4.0,6.0,70,0.00,,,0.00,Wunderground v.1.15,2013-01-25 17:45:00,
2013-01-25 10:55:00,42.0,32.9,30.21,NNW,329,4.0,8.0,70,0.00,,,0.00,Wunderground v.1.15,2013-01-25 17:55:00,
2013-01-25 11:01:00,42.2,32.8,30.21,NNW,331,3.0,3.0,69,0.00,,,0.00,Wunderground v.1.15,2013-01-25 18:01:00,
2013-01-25 11:10:00,42.4,32.9,30.20,NW,322,3.0,5.0,69,0.00,,,0.00,Wunderground v.1.15,2013-01-25 18:10:00,
2013-01-25 11:15:00,42.3,32.8,30.20,WNW,302,4.0,5.0,69,0.00,,,0.00,Wunderground v.1.15,2013-01-25 18:15:00,
2013-01-25 11:20:00,42.3,32.8,30.20,NNW,332,4.0,5.0,69,0.00,,,0.00,Wunderground v.1.15,2013-01-25 18:20:00,
2013-01-25 11:25:00,42.0,32.6,30.19,NNW,329,2.0,5.0,69,0.00,,,0.00,Wunderground v.1.15,2013-01-25 18:25:00,
2013-01-25 11:30:00,41.8,32.7,30.18,WNW,300,2.0,2.0,70,0.00,,,0.00,Wunderground v.1.15,2013-01-25 18:30:00,
2013-01-25 11:40:00,42.0,32.9,30.17,NW,308,1.0,1.0,70,0.00,,,0.00,Wunderground v.1.15,2013-01-25 18:40:00,
2013-01-25 11:45:00,42.2,33.1,30.16,NNW,331,0.0,3.0,70,0.00,,,0.00,Wunderground v.1.15,2013-01-25 18:45:00,
2013-01-25 11:50:00,42.3,32.8,30.16,NNW,338,1.0,3.0,69,0.00,,,0.00,Wunderground v.1.15,2013-01-25 18:50:00,
2013-01-25 11:55:00,42.4,32.9,30.16,WNW,288,1.0,3.0,69,0.00,,,0.00,Wunderground v.1.15,2013-01-25 18:55:00,
2013-01-25 12:00:00,42.5,33.0,30.16,NNW,336,1.0,5.0,69,0.00,,,0.00,Wunderground v.1.15,2013-01-25 19:00:00,
2013-01-25 12:10:00,42.5,33.0,30.16,NNW,344,4.0,6.0,69,0.00,,,0.00,Wunderground v.1.15,2013-01-25 19:10:00,
2013-01-25 12:15:00,42.4,32.9,30.16,NW,324,4.0,6.0,69,0.00,,,0.00,Wunderground v.1.15,2013-01-25 19:15:00,
2013-01-25 12:20:00,42.4,33.3,30.16,NW,320,4.0,4.0,70,0.00,,,0.00,Wunderground v.1.15,2013-01-25 19:20:00,
2013-01-25 12:25:00,42.8,33.3,30.15,NW,311,2.0,4.0,69,0.00,,,0.00,Wunderground v.1.15,2013-01-25 19:25:00,
2013-01-25 12:30:00,42.8,33.0,30.15,NNW,329,2.0,3.0,68,0.00,,,0.00,Wunderground v.1.15,2013-01-25 19:30:00,
2013-01-25 12:40:00,43.0,33.2,30.15,NW,321,4.0,4.0,68,0.00,,,0.00,Wunderground v.1.15,2013-01-25 19:40:00,
2013-01-25 12:45:00,42.8,33.0,30.15,NW,304,4.0,4.0,68,0.00,,,0.00,Wunderground v.1.15,2013-01-25 19:45:00,
2013-01-25 12:55:00,43.0,33.5,30.14,NNW,328,3.0,3.0,69,0.00,,,0.00,Wunderground v.1.15,2013-01-25 19:55:00,
2013-01-25 13:00:00,42.9,33.1,30.14,NW,325,4.0,5.0,68,0.00,,,0.00,Wunderground v.1.15,2013-01-25 20:00:00,
2013-01-25 13:10:00,43.1,33.3,30.13,NNW,327,2.0,7.0,68,0.00,,,0.00,Wunderground v.1.15,2013-01-25 20:10:00,
2013-01-25 13:15:00,43.4,33.2,30.13,NW,314,3.0,7.0,67,0.00,,,0.00,Wunderground v.1.15,2013-01-25 20:15:00,
2013-01-25 13:25:00,44.0,33.0,30.12,NNW,330,4.0,6.0,65,0.00,,,0.00,Wunderground v.1.15,2013-01-25 20:25:00,
2013-01-25 13:30:00,44.3,32.5,30.12,NNW,339,4.0,4.0,63,0.00,,,0.00,Wunderground v.1.15,2013-01-25 20:30:00,
2013-01-25 13:35:00,44.4,32.2,30.12,NNW,333,5.0,7.0,62,0.00,,,0.00,Wunderground v.1.15,2013-01-25 20:35:00,
2013-01-25 13:40:00,44.6,32.4,30.12,NNW,334,5.0,6.0,62,0.00,,,0.00,Wunderground v.1.15,2013-01-25 20:40:00,
2013-01-25 13:50:00,44.9,31.8,30.11,NW,316,5.0,5.0,60,0.00,,,0.00,Wunderground v.1.15,2013-01-25 20:50:00,
2013-01-25 13:55:00,45.0,31.5,30.10,WNW,296,4.0,6.0,59,0.00,,,0.00,Wunderground v.1.15,2013-01-25 20:55:00,
2013-01-25 14:01:00,45.0,31.5,30.10,NNW,333,5.0,6.0,59,0.00,,,0.00,Wunderground v.1.15,2013-01-25 21:01:00,
2013-01-25 14:10:00,45.0,31.5,30.10,North,349,5.0,5.0,59,0.00,,,0.00,Wunderground v.1.15,2013-01-25 21:10:00,
2013-01-25 14:20:00,45.4,31.0,30.10,NW,314,5.0,5.0,57,0.00,,,0.00,Wunderground v.1.15,2013-01-25 21:20:00,
2013-01-25 14:30:00,45.1,31.2,30.11,NNW,338,7.0,7.0,58,0.00,,,0.00,Wunderground v.1.15,2013-01-25 21:30:00,
2013-01-25 14:35:00,44.9,30.6,30.11,NW,325,7.0,7.0,57,0.00,,,0.00,Wunderground v.1.15,2013-01-25 21:35:00,
2013-01-25 14:40:00,44.7,30.8,30.11,NNW,339,5.0,7.0,58,0.00,,,0.00,Wunderground v.1.15,2013-01-25 21:40:00,
2013-01-25 14:50:00,44.6,31.1,30.11,NNW,338,6.0,6.0,59,0.00,,,0.00,Wunderground v.1.15,2013-01-25 21:50:00,
2013-01-25 14:55:00,44.5,30.6,30.11,NNW,333,5.0,6.0,58,0.00,,,0.00,Wunderground v.1.15,2013-01-25 21:55:00,
2013-01-25 15:01:00,44.6,30.7,30.11,NNW,334,5.0,5.0,58,0.00,,,0.00,Wunderground v.1.15,2013-01-25 22:01:00,
2013-01-25 15:10:00,44.4,30.1,30.11,NNE,19,7.0,7.0,57,0.00,,,0.00,Wunderground v.1.15,2013-01-25 22:10:00,
2013-01-25 15:20:00,44.6,29.9,30.11,NW,314,7.0,7.0,56,0.00,,,0.00,Wunderground v.1.15,2013-01-25 22:20:00,
2013-01-25 15:30:00,44.3,30.0,30.11,WNW,298,7.0,7.0,57,0.00,,,0.00,Wunderground v.1.15,2013-01-25 22:30:00,
2013-01-25 15:40:00,44.3,30.4,30.11,NW,317,4.0,5.0,58,0.00,,,0.00,Wunderground v.1.15,2013-01-25 22:40:00,
2013-01-25 15:45:00,44.2,30.3,30.11,WNW,298,5.0,5.0,58,0.00,,,0.00,Wunderground v.1.15,2013-01-25 22:45:00,
2013-01-25 15:55:00,43.8,30.4,30.11,NNW,329,5.0,8.0,59,0.00,,,0.00,Wunderground v.1.15,2013-01-25 22:55:00,
2013-01-25 16:01:00,43.5,30.5,30.11,NW,317,5.0,5.0,60,0.00,,,0.00,Wunderground v.1.15,2013-01-25 23:01:00,
2013-01-25 16:10:00,43.4,30.8,30.10,NNW,333,5.0,5.0,61,0.00,,,0.00,Wunderground v.1.15,2013-01-25 23:10:00,
2013-01-25 16:15:00,43.4,30.8,30.10,NW,321,5.0,5.0,61,0.00,,,0.00,Wunderground v.1.15,2013-01-25 23:15:00,
2013-01-25 16:20:00,43.4,30.8,30.10,NNW,329,4.0,5.0,61,0.00,,,0.00,Wunderground v.1.15,2013-01-25 23:20:00,
2013-01-25 16:30:00,42.9,31.2,30.10,NW,321,5.0,6.0,63,0.00,,,0.00,Wunderground v.1.15,2013-01-25 23:30:00,
2013-01-25 16:35:00,42.8,31.5,30.10,NW,314,5.0,6.0,64,0.00,,,0.00,Wunderground v.1.15,2013-01-25 23:35:00,
2013-01-25 16:40:00,42.6,31.3,30.11,WNW,300,3.0,3.0,64,0.00,,,0.00,Wunderground v.1.15,2013-01-25 23:40:00,
2013-01-25 16:45:00,42.5,31.6,30.10,NW,324,1.0,3.0,65,0.00,,,0.00,Wunderground v.1.15,2013-01-25 23:45:00,
2013-01-25 16:50:00,42.1,31.6,30.10,WNW,297,1.0,3.0,66,0.00,,,0.00,Wunderground v.1.15,2013-01-25 23:50:00,
2013-01-25 17:00:00,41.8,31.6,30.10,West,280,1.0,1.0,67,0.00,,,0.00,Wunderground v.1.15,2013-01-26 00:00:00,
2013-01-25 17:10:00,41.8,31.6,30.11,NW,326,2.0,4.0,67,0.00,,,0.00,Wunderground v.1.15,2013-01-26 00:10:00,
2013-01-25 17:15:00,41.8,32.0,30.11,WNW,299,4.0,4.0,68,0.00,,,0.00,Wunderground v.1.15,2013-01-26 00:15:00,
2013-01-25 17:20:00,41.8,32.0,30.11,NNW,329,6.0,6.0,68,0.00,,,0.00,Wunderground v.1.15,2013-01-26 00:20:00,
2013-01-25 17:25:00,41.7,31.9,30.10,NNW,330,6.0,6.0,68,0.00,,,0.00,Wunderground v.1.15,2013-01-26 00:25:00,
2013-01-25 17:30:00,41.6,32.2,30.10,WNW,302,4.0,4.0,69,0.00,,,0.00,Wunderground v.1.15,2013-01-26 00:30:00,
2013-01-25 17:35:00,41.4,32.0,30.11,WNW,300,3.0,4.0,69,0.00,,,0.00,Wunderground v.1.15,2013-01-26 00:35:00,
2013-01-25 17:40:00,41.3,32.2,30.11,NNW,330,2.0,4.0,70,0.00,,,0.00,Wunderground v.1.15,2013-01-26 00:40:00,
2013-01-25 17:45:00,41.1,32.1,30.11,NW,310,2.0,4.0,70,0.00,,,0.00,Wunderground v.1.15,2013-01-26 00:45:00,
2013-01-25 17:50:00,41.1,32.4,30.11,NNW,333,2.0,2.0,71,0.00,,,0.00,Wunderground v.1.15,2013-01-26 00:50:00,
2013-01-25 17:55:00,41.1,32.4,30.11,NW,305,3.0,7.0,71,0.00,,,0.00,Wunderground v.1.15,2013-01-26 00:55:00,
2013-01-25 18:00:00,41.2,32.5,30.11,NW,325,5.0,7.0,71,0.00,,,0.00,Wunderground v.1.15,2013-01-26 01:00:00,
2013-01-25 18:10:00,41.0,32.3,30.12,NNW,330,5.0,5.0,71,0.00,,,0.00,Wunderground v.1.15,2013-01-26 01:10:00,
2013-01-25 18:20:00,40.9,32.2,30.13,NW,308,2.0,3.0,71,0.00,,,0.00,Wunderground v.1.15,2013-01-26 01:20:00,
2013-01-25 18:25:00,40.9,32.6,30.13,NNW,332,3.0,5.0,72,0.00,,,0.00,Wunderground v.1.15,2013-01-26 01:25:00,
2013-01-25 18:30:00,40.8,32.5,30.13,North,360,3.0,7.0,72,0.00,,,0.00,Wunderground v.1.15,2013-01-26 01:30:00,
2013-01-25 18:35:00,40.7,32.4,30.14,NNW,337,3.0,7.0,72,0.00,,,0.00,Wunderground v.1.15,2013-01-26 01:35:00,
2013-01-25 18:40:00,40.5,32.5,30.14,WNW,296,4.0,4.0,73,0.00,,,0.00,Wunderground v.1.15,2013-01-26 01:40:00,
2013-01-25 18:45:00,40.4,32.4,30.14,NNW,340,4.0,5.0,73,0.00,,,0.00,Wunderground v.1.15,2013-01-26 01:45:00,
2013-01-25 18:50:00,40.2,32.6,30.14,NW,308,5.0,5.0,74,0.00,,,0.00,Wunderground v.1.15,2013-01-26 01:50:00,
2013-01-25 18:55:00,39.9,32.3,30.15,NNW,329,3.0,5.0,74,0.00,,,0.00,Wunderground v.1.15,2013-01-26 01:55:00,
2013-01-25 19:00:00,39.6,32.3,30.15,NW,323,2.0,4.0,75,0.00,,,0.00,Wunderground v.1.15,2013-01-26 02:00:00,
2013-01-25 19:10:00,39.3,32.4,30.15,NNW,327,2.0,2.0,76,0.00,,,0.00,Wunderground v.1.15,2013-01-26 02:10:00,
2013-01-25 19:15:00,39.1,32.5,30.15,NNW,340,1.0,2.0,77,0.00,,,0.00,Wunderground v.1.15,2013-01-26 02:15:00,
2013-01-25 19:25:00,39.0,32.4,30.14,NW,324,2.0,2.0,77,0.00,,,0.00,Wunderground v.1.15,2013-01-26 02:25:00,
2013-01-25 19:30:00,39.0,32.4,30.15,NW,313,2.0,3.0,77,0.00,,,0.00,Wunderground v.1.15,2013-01-26 02:30:00,
2013-01-25 19:40:00,38.8,32.5,30.14,NW,323,1.0,2.0,78,0.00,,,0.00,Wunderground v.1.15,2013-01-26 02:40:00,
2013-01-25 19:45:00,38.8,32.5,30.14,NW,326,2.0,2.0,78,0.00,,,0.00,Wunderground v.1.15,2013-01-26 02:45:00,
2013-01-25 19:50:00,38.8,32.5,30.15,NNW,329,2.0,2.0,78,0.00,,,0.00,Wunderground v.1.15,2013-01-26 02:50:00,
2013-01-25 20:01:00,38.8,32.5,30.15,NNW,327,2.0,2.0,78,0.00,,,0.00,Wunderground v.1.15,2013-01-26 03:01:00,
2013-01-25 20:10:00,38.7,32.4,30.15,NW,321,1.0,1.0,78,0.00,,,0.00,Wunderground v.1.15,2013-01-26 03:10:00,
2013-01-25 20:15:00,38.6,32.3,30.14,NNW,332,1.0,1.0,78,0.00,,,0.00,Wunderground v.1.15,2013-01-26 03:15:00,
2013-01-25 20:20:00,38.6,32.3,30.14,NNW,332,1.0,1.0,78,0.00,,,0.00,Wunderground v.1.15,2013-01-26 03:20:00,
2013-01-25 20:25:00,38.4,32.1,30.14,NNW,333,1.0,1.0,78,0.00,,,0.00,Wunderground v.1.15,2013-01-26 03:25:00,
2013-01-25 20:35:00,37.2,31.6,30.15,NNW,327,0.0,3.0,80,0.00,,,0.00,Wunderground v.1.15,2013-01-26 03:35:00,
2013-01-25 20:40:00,36.9,31.6,30.15,NNW,327,0.0,0.0,81,0.00,,,0.00,Wunderground v.1.15,2013-01-26 03:40:00,
2013-01-25 20:50:00,36.1,31.1,30.14,NNW,327,0.0,0.0,82,0.00,,,0.00,Wunderground v.1.15,2013-01-26 03:50:00,
2013-01-25 20:55:00,35.4,30.8,30.14,NNW,327,0.0,0.0,83,0.00,,,0.00,Wunderground v.1.15,2013-01-26 03:55:00,
2013-01-25 21:00:00,34.8,30.5,30.14,NNW,327,0.0,0.0,84,0.00,,,0.00,Wunderground v.1.15,2013-01-26 04:00:00,
2013-01-25 21:10:00,34.1,30.1,30.15,NNW,327,0.0,0.0,85,0.00,,,0.00,Wunderground v.1.15,2013-01-26 04:10:00,
2013-01-25 21:20:00,33.2,29.5,30.15,NNW,327,0.0,0.0,86,0.00,,,0.00,Wunderground v.1.15,2013-01-26 04:20:00,
2013-01-25 21:25:00,32.9,29.5,30.15,NNW,327,0.0,0.0,87,0.00,,,0.00,Wunderground v.1.15,2013-01-26 04:25:00,
2013-01-25 21:30:00,32.6,29.2,30.15,NNW,327,0.0,0.0,87,0.00,,,0.00,Wunderground v.1.15,2013-01-26 04:30:00,
2013-01-25 21:40:00,32.2,29.0,30.15,NNW,327,0.0,0.0,88,0.00,,,0.00,Wunderground v.1.15,2013-01-26 04:40:00,
2013-01-25 21:45:00,31.9,28.8,30.15,NNW,327,0.0,0.0,88,0.00,,,0.00,Wunderground v.1.15,2013-01-26 04:45:00,
2013-01-25 21:55:00,31.5,28.4,30.15,NNW,327,0.0,0.0,88,0.00,,,0.00,Wunderground v.1.15,2013-01-26 04:55:00,
2013-01-25 22:01:00,31.4,28.5,30.15,NNW,327,0.0,0.0,89,0.00,,,0.00,Wunderground v.1.15,2013-01-26 05:01:00,
2013-01-25 22:10:00,31.4,28.5,30.15,NNW,327,0.0,0.0,89,0.00,,,0.00,Wunderground v.1.15,2013-01-26 05:10:00,
2013-01-25 22:15:00,31.1,28.2,30.15,NNW,327,0.0,0.0,89,0.00,,,0.00,Wunderground v.1.15,2013-01-26 05:15:00,
2013-01-25 22:20:00,30.9,28.0,30.15,NNW,327,0.0,0.0,89,0.00,,,0.00,Wunderground v.1.15,2013-01-26 05:20:00,
2013-01-25 22:30:00,30.3,27.4,30.15,NNW,327,0.0,0.0,89,0.00,,,0.00,Wunderground v.1.15,2013-01-26 05:30:00,
2013-01-25 22:35:00,30.1,27.5,30.15,NNW,327,0.0,0.0,90,0.00,,,0.00,Wunderground v.1.15,2013-01-26 05:35:00,
2013-01-25 22:40:00,29.8,27.2,30.16,NNW,327,0.0,0.0,90,0.00,,,0.00,Wunderground v.1.15,2013-01-26 05:40:00,
2013-01-25 22:45:00,29.4,26.8,30.16,NNW,327,0.0,0.0,90,0.00,,,0.00,Wunderground v.1.15,2013-01-26 05:45:00,
2013-01-25 22:50:00,29.3,26.7,30.16,NNW,327,0.0,0.0,90,0.00,,,0.00,Wunderground v.1.15,2013-01-26 05:50:00,
2013-01-25 22:55:00,29.2,26.6,30.16,NNW,327,0.0,0.0,90,0.00,,,0.00,Wunderground v.1.15,2013-01-26 05:55:00,
2013-01-25 23:01:00,29.1,26.8,30.16,NNW,327,0.0,0.0,91,0.00,,,0.00,Wunderground v.1.15,2013-01-26 06:01:00,
2013-01-25 23:10:00,28.9,26.6,30.16,NNW,327,0.0,0.0,91,0.00,,,0.00,Wunderground v.1.15,2013-01-26 06:10:00,
2013-01-25 23:16:00,28.9,26.6,30.16,NNW,327,0.0,0.0,91,0.00,,,0.00,Wunderground v.1.15,2013-01-26 06:16:00,
2013-01-25 23:25:00,28.6,26.3,30.16,NNW,327,0.0,0.0,91,0.00,,,0.00,Wunderground v.1.15,2013-01-26 06:25:00,
2013-01-25 23:31:00,28.4,26.1,30.16,NNW,327,0.0,0.0,91,0.00,,,0.00,Wunderground v.1.15,2013-01-26 06:31:00,
2013-01-25 23:40:00,28.3,26.0,30.16,NNW,327,0.0,0.0,91,0.00,,,0.00,Wunderground v.1.15,2013-01-26 06:40:00,
2013-01-25 23:45:00,28.2,25.9,30.16,NNW,327,0.0,0.0,91,0.00,,,0.00,Wunderground v.1.15,2013-01-26 06:45:00,
2013-01-25 23:50:00,28.1,25.8,30.16,NNW,327,0.0,0.0,91,0.00,,,0.00,Wunderground v.1.15,2013-01-26 06:50:00,